sensor_id;sensor_type;location;lat;lon;timestamp;P1;durP1;ratioP1;P2;durP2;ratioP2
59062;SDS011;44851;45.648;9.004;2023-04-25T00:00:47;3.70;;;2.97;;
59062;SDS011;44851;45.648;9.004;2023-04-25T00:03:12;3.10;;;2.80;;
59062;SDS011;44851;45.648;9.004;2023-04-25T00:05:38;3.20;;;2.90;;
59062;SDS011;44851;45.648;9.004;2023-04-25T00:08:04;2.93;;;2.63;;
59062;SDS011;44851;45.648;9.004;2023-04-25T00:10:30;4.00;;;2.93;;
59062;SDS011;44851;45.648;9.004;2023-04-25T00:12:56;3.00;;;2.70;;
59062;SDS011;44851;45.648;9.004;2023-04-25T00:15:22;3.97;;;2.57;;
59062;SDS011;44851;45.648;9.004;2023-04-25T00:17:49;3.10;;;2.80;;
59062;SDS011;44851;45.648;9.004;2023-04-25T00:20:14;3.67;;;2.97;;
59062;SDS011;44851;45.648;9.004;2023-04-25T00:22:40;3.03;;;2.73;;
59062;SDS011;44851;45.648;9.004;2023-04-25T00:25:06;3.67;;;2.87;;
59062;SDS011;44851;45.648;9.004;2023-04-25T00:27:32;4.70;;;2.97;;
59062;SDS011;44851;45.648;9.004;2023-04-25T00:29:57;2.83;;;2.63;;
59062;SDS011;44851;45.648;9.004;2023-04-25T00:32:23;3.37;;;2.70;;
59062;SDS011;44851;45.648;9.004;2023-04-25T00:34:48;3.50;;;2.90;;
59062;SDS011;44851;45.648;9.004;2023-04-25T00:37:14;3.33;;;3.03;;
59062;SDS011;44851;45.648;9.004;2023-04-25T00:39:39;3.37;;;3.07;;
59062;SDS011;44851;45.648;9.004;2023-04-25T00:42:05;3.30;;;2.80;;
59062;SDS011;44851;45.648;9.004;2023-04-25T00:44:31;3.30;;;3.00;;
59062;SDS011;44851;45.648;9.004;2023-04-25T00:46:57;2.77;;;2.57;;
59062;SDS011;44851;45.648;9.004;2023-04-25T00:49:22;3.47;;;2.97;;
59062;SDS011;44851;45.648;9.004;2023-04-25T00:51:48;4.10;;;2.97;;
59062;SDS011;44851;45.648;9.004;2023-04-25T00:54:14;5.07;;;2.87;;
59062;SDS011;44851;45.648;9.004;2023-04-25T00:56:40;4.70;;;3.30;;
59062;SDS011;44851;45.648;9.004;2023-04-25T00:59:06;3.03;;;2.70;;
59062;SDS011;44851;45.648;9.004;2023-04-25T01:01:32;4.30;;;3.10;;
59062;SDS011;44851;45.648;9.004;2023-04-25T01:03:58;2.70;;;2.50;;
59062;SDS011;44851;45.648;9.004;2023-04-25T01:06:25;3.17;;;2.83;;
59062;SDS011;44851;45.648;9.004;2023-04-25T01:08:51;3.20;;;2.87;;
59062;SDS011;44851;45.648;9.004;2023-04-25T01:11:16;3.30;;;3.00;;
59062;SDS011;44851;45.648;9.004;2023-04-25T01:13:42;3.87;;;2.97;;
59062;SDS011;44851;45.648;9.004;2023-04-25T01:16:08;3.63;;;3.17;;
59062;SDS011;44851;45.648;9.004;2023-04-25T01:18:33;3.93;;;3.20;;
59062;SDS011;44851;45.648;9.004;2023-04-25T01:21:32;3.73;;;3.00;;
59062;SDS011;44851;45.648;9.004;2023-04-25T01:23:53;3.47;;;3.20;;
59062;SDS011;44851;45.648;9.004;2023-04-25T01:26:19;3.40;;;2.87;;
59062;SDS011;44851;45.648;9.004;2023-04-25T01:28:46;3.20;;;2.90;;
59062;SDS011;44851;45.648;9.004;2023-04-25T01:31:12;3.07;;;2.77;;
59062;SDS011;44851;45.648;9.004;2023-04-25T01:33:38;4.13;;;3.10;;
59062;SDS011;44851;45.648;9.004;2023-04-25T01:36:03;3.20;;;2.90;;
59062;SDS011;44851;45.648;9.004;2023-04-25T01:38:29;3.00;;;2.70;;
59062;SDS011;44851;45.648;9.004;2023-04-25T01:40:55;3.60;;;3.30;;
59062;SDS011;44851;45.648;9.004;2023-04-25T01:43:21;2.90;;;2.70;;
59062;SDS011;44851;45.648;9.004;2023-04-25T01:45:46;3.30;;;2.97;;
59062;SDS011;44851;45.648;9.004;2023-04-25T01:48:14;5.93;;;3.17;;
59062;SDS011;44851;45.648;9.004;2023-04-25T01:50:40;3.23;;;2.93;;
59062;SDS011;44851;45.648;9.004;2023-04-25T01:53:06;3.37;;;2.77;;
59062;SDS011;44851;45.648;9.004;2023-04-25T01:55:35;4.30;;;3.20;;
59062;SDS011;44851;45.648;9.004;2023-04-25T01:58:02;3.50;;;3.20;;
59062;SDS011;44851;45.648;9.004;2023-04-25T02:00:28;2.87;;;2.67;;
59062;SDS011;44851;45.648;9.004;2023-04-25T02:02:53;2.77;;;2.50;;
59062;SDS011;44851;45.648;9.004;2023-04-25T02:05:19;3.20;;;2.90;;
59062;SDS011;44851;45.648;9.004;2023-04-25T02:07:45;3.80;;;2.93;;
59062;SDS011;44851;45.648;9.004;2023-04-25T02:10:12;2.87;;;2.60;;
59062;SDS011;44851;45.648;9.004;2023-04-25T02:12:37;3.10;;;2.80;;
59062;SDS011;44851;45.648;9.004;2023-04-25T02:15:03;3.77;;;2.73;;
59062;SDS011;44851;45.648;9.004;2023-04-25T02:17:28;2.97;;;2.73;;
59062;SDS011;44851;45.648;9.004;2023-04-25T02:19:54;3.70;;;3.10;;
59062;SDS011;44851;45.648;9.004;2023-04-25T02:22:19;4.27;;;3.03;;
59062;SDS011;44851;45.648;9.004;2023-04-25T02:24:45;3.70;;;3.00;;
59062;SDS011;44851;45.648;9.004;2023-04-25T02:27:11;3.30;;;3.00;;
59062;SDS011;44851;45.648;9.004;2023-04-25T02:29:36;3.63;;;2.93;;
59062;SDS011;44851;45.648;9.004;2023-04-25T02:32:02;3.83;;;2.90;;
59062;SDS011;44851;45.648;9.004;2023-04-25T02:34:27;3.70;;;3.40;;
59062;SDS011;44851;45.648;9.004;2023-04-25T02:36:53;4.90;;;3.17;;
59062;SDS011;44851;45.648;9.004;2023-04-25T02:39:18;7.30;;;3.07;;
59062;SDS011;44851;45.648;9.004;2023-04-25T02:41:44;3.63;;;3.17;;
59062;SDS011;44851;45.648;9.004;2023-04-25T02:44:09;3.93;;;3.53;;
59062;SDS011;44851;45.648;9.004;2023-04-25T02:46:35;5.60;;;3.43;;
59062;SDS011;44851;45.648;9.004;2023-04-25T02:49:00;4.00;;;3.60;;
59062;SDS011;44851;45.648;9.004;2023-04-25T02:51:25;3.90;;;3.60;;
59062;SDS011;44851;45.648;9.004;2023-04-25T02:53:51;3.63;;;2.80;;
59062;SDS011;44851;45.648;9.004;2023-04-25T02:56:16;5.17;;;3.50;;
59062;SDS011;44851;45.648;9.004;2023-04-25T02:58:42;3.90;;;3.50;;
59062;SDS011;44851;45.648;9.004;2023-04-25T03:01:07;4.17;;;3.87;;
59062;SDS011;44851;45.648;9.004;2023-04-25T03:03:33;4.30;;;3.90;;
59062;SDS011;44851;45.648;9.004;2023-04-25T03:05:58;4.53;;;4.13;;
59062;SDS011;44851;45.648;9.004;2023-04-25T03:08:23;5.13;;;4.63;;
59062;SDS011;44851;45.648;9.004;2023-04-25T03:10:50;4.93;;;4.43;;
59062;SDS011;44851;45.648;9.004;2023-04-25T03:13:17;5.37;;;4.63;;
59062;SDS011;44851;45.648;9.004;2023-04-25T03:15:43;6.27;;;4.90;;
59062;SDS011;44851;45.648;9.004;2023-04-25T03:18:09;5.27;;;4.77;;
59062;SDS011;44851;45.648;9.004;2023-04-25T03:20:34;5.40;;;4.90;;
59062;SDS011;44851;45.648;9.004;2023-04-25T03:22:59;4.93;;;4.50;;
59062;SDS011;44851;45.648;9.004;2023-04-25T03:25:25;5.07;;;4.67;;
59062;SDS011;44851;45.648;9.004;2023-04-25T03:27:50;5.20;;;4.70;;
59062;SDS011;44851;45.648;9.004;2023-04-25T03:30:16;5.40;;;4.90;;
59062;SDS011;44851;45.648;9.004;2023-04-25T03:32:41;4.80;;;4.27;;
59062;SDS011;44851;45.648;9.004;2023-04-25T03:35:07;5.53;;;4.97;;
59062;SDS011;44851;45.648;9.004;2023-04-25T03:37:32;5.00;;;4.43;;
59062;SDS011;44851;45.648;9.004;2023-04-25T03:39:58;4.73;;;4.33;;
59062;SDS011;44851;45.648;9.004;2023-04-25T03:42:23;4.43;;;4.03;;
59062;SDS011;44851;45.648;9.004;2023-04-25T03:44:49;5.13;;;4.63;;
59062;SDS011;44851;45.648;9.004;2023-04-25T03:47:15;5.50;;;4.03;;
59062;SDS011;44851;45.648;9.004;2023-04-25T03:49:41;4.10;;;3.70;;
59062;SDS011;44851;45.648;9.004;2023-04-25T03:52:06;6.33;;;3.97;;
59062;SDS011;44851;45.648;9.004;2023-04-25T03:54:32;5.00;;;4.03;;
59062;SDS011;44851;45.648;9.004;2023-04-25T03:56:57;4.53;;;3.70;;
59062;SDS011;44851;45.648;9.004;2023-04-25T03:59:23;4.43;;;3.77;;
59062;SDS011;44851;45.648;9.004;2023-04-25T04:01:49;4.73;;;4.30;;
59062;SDS011;44851;45.648;9.004;2023-04-25T04:04:15;4.30;;;3.60;;
59062;SDS011;44851;45.648;9.004;2023-04-25T04:06:40;3.83;;;3.53;;
59062;SDS011;44851;45.648;9.004;2023-04-25T04:09:07;3.70;;;3.40;;
59062;SDS011;44851;45.648;9.004;2023-04-25T04:11:35;3.90;;;3.57;;
59062;SDS011;44851;45.648;9.004;2023-04-25T04:14:03;3.90;;;3.50;;
59062;SDS011;44851;45.648;9.004;2023-04-25T04:16:30;4.10;;;3.33;;
59062;SDS011;44851;45.648;9.004;2023-04-25T04:18:56;3.53;;;3.23;;
59062;SDS011;44851;45.648;9.004;2023-04-25T04:21:21;3.70;;;3.40;;
59062;SDS011;44851;45.648;9.004;2023-04-25T04:23:46;3.10;;;2.80;;
59062;SDS011;44851;45.648;9.004;2023-04-25T04:26:13;3.17;;;2.87;;
59062;SDS011;44851;45.648;9.004;2023-04-25T04:28:40;4.03;;;3.10;;
59062;SDS011;44851;45.648;9.004;2023-04-25T04:31:05;3.67;;;3.00;;
59062;SDS011;44851;45.648;9.004;2023-04-25T04:33:32;3.23;;;2.93;;
59062;SDS011;44851;45.648;9.004;2023-04-25T04:35:57;3.10;;;2.70;;
59062;SDS011;44851;45.648;9.004;2023-04-25T04:38:23;3.17;;;2.87;;
59062;SDS011;44851;45.648;9.004;2023-04-25T04:40:50;4.07;;;3.20;;
59062;SDS011;44851;45.648;9.004;2023-04-25T04:43:15;3.20;;;2.90;;
59062;SDS011;44851;45.648;9.004;2023-04-25T04:45:42;2.73;;;2.53;;
59062;SDS011;44851;45.648;9.004;2023-04-25T04:48:08;3.23;;;2.33;;
59062;SDS011;44851;45.648;9.004;2023-04-25T04:50:33;5.07;;;2.63;;
59062;SDS011;44851;45.648;9.004;2023-04-25T04:53:00;3.30;;;2.73;;
59062;SDS011;44851;45.648;9.004;2023-04-25T04:55:27;2.60;;;2.40;;
59062;SDS011;44851;45.648;9.004;2023-04-25T04:57:52;2.67;;;2.43;;
59062;SDS011;44851;45.648;9.004;2023-04-25T05:00:18;2.60;;;2.37;;
59062;SDS011;44851;45.648;9.004;2023-04-25T05:02:43;3.33;;;2.77;;
59062;SDS011;44851;45.648;9.004;2023-04-25T05:05:09;2.83;;;2.63;;
59062;SDS011;44851;45.648;9.004;2023-04-25T05:07:35;2.93;;;2.73;;
59062;SDS011;44851;45.648;9.004;2023-04-25T05:10:00;3.43;;;3.13;;
59062;SDS011;44851;45.648;9.004;2023-04-25T05:12:26;2.90;;;2.70;;
59062;SDS011;44851;45.648;9.004;2023-04-25T05:14:51;2.57;;;2.37;;
59062;SDS011;44851;45.648;9.004;2023-04-25T05:17:17;3.33;;;2.40;;
59062;SDS011;44851;45.648;9.004;2023-04-25T05:19:42;1.93;;;1.77;;
59062;SDS011;44851;45.648;9.004;2023-04-25T05:22:08;3.03;;;2.17;;
59062;SDS011;44851;45.648;9.004;2023-04-25T05:24:33;2.57;;;2.20;;
59062;SDS011;44851;45.648;9.004;2023-04-25T05:26:59;2.20;;;1.90;;
59062;SDS011;44851;45.648;9.004;2023-04-25T05:29:24;3.07;;;2.03;;
59062;SDS011;44851;45.648;9.004;2023-04-25T05:31:49;2.60;;;2.17;;
59062;SDS011;44851;45.648;9.004;2023-04-25T05:34:15;2.47;;;2.20;;
59062;SDS011;44851;45.648;9.004;2023-04-25T05:36:41;2.60;;;1.97;;
59062;SDS011;44851;45.648;9.004;2023-04-25T05:39:07;2.60;;;1.80;;
59062;SDS011;44851;45.648;9.004;2023-04-25T05:41:33;2.20;;;2.00;;
59062;SDS011;44851;45.648;9.004;2023-04-25T05:43:59;4.17;;;2.40;;
59062;SDS011;44851;45.648;9.004;2023-04-25T05:46:24;9.30;;;5.63;;
59062;SDS011;44851;45.648;9.004;2023-04-25T05:48:50;8.93;;;6.50;;
59062;SDS011;44851;45.648;9.004;2023-04-25T05:51:15;9.57;;;5.97;;
59062;SDS011;44851;45.648;9.004;2023-04-25T05:53:41;8.13;;;5.80;;
59062;SDS011;44851;45.648;9.004;2023-04-25T05:56:06;9.10;;;5.87;;
59062;SDS011;44851;45.648;9.004;2023-04-25T05:58:32;7.80;;;5.23;;
59062;SDS011;44851;45.648;9.004;2023-04-25T06:00:58;7.27;;;5.07;;
59062;SDS011;44851;45.648;9.004;2023-04-25T06:03:24;6.97;;;4.90;;
59062;SDS011;44851;45.648;9.004;2023-04-25T06:05:51;7.00;;;4.27;;
59062;SDS011;44851;45.648;9.004;2023-04-25T06:08:16;7.30;;;4.67;;
59062;SDS011;44851;45.648;9.004;2023-04-25T06:10:42;5.40;;;3.87;;
59062;SDS011;44851;45.648;9.004;2023-04-25T06:13:07;4.73;;;3.33;;
59062;SDS011;44851;45.648;9.004;2023-04-25T06:15:33;5.07;;;3.30;;
59062;SDS011;44851;45.648;9.004;2023-04-25T06:17:58;4.07;;;2.77;;
59062;SDS011;44851;45.648;9.004;2023-04-25T06:20:23;2.50;;;2.30;;
59062;SDS011;44851;45.648;9.004;2023-04-25T06:22:49;2.30;;;2.10;;
59062;SDS011;44851;45.648;9.004;2023-04-25T06:25:16;2.60;;;2.00;;
59062;SDS011;44851;45.648;9.004;2023-04-25T06:27:42;2.17;;;1.97;;
59062;SDS011;44851;45.648;9.004;2023-04-25T06:30:07;2.30;;;1.80;;
59062;SDS011;44851;45.648;9.004;2023-04-25T06:32:33;1.90;;;1.60;;
59062;SDS011;44851;45.648;9.004;2023-04-25T06:34:59;2.80;;;1.67;;
59062;SDS011;44851;45.648;9.004;2023-04-25T06:37:25;1.87;;;1.70;;
59062;SDS011;44851;45.648;9.004;2023-04-25T06:39:51;2.00;;;1.80;;
59062;SDS011;44851;45.648;9.004;2023-04-25T06:42:16;2.80;;;1.70;;
59062;SDS011;44851;45.648;9.004;2023-04-25T06:44:42;2.57;;;1.80;;
59062;SDS011;44851;45.648;9.004;2023-04-25T06:47:07;2.50;;;1.77;;
59062;SDS011;44851;45.648;9.004;2023-04-25T06:49:33;2.30;;;2.10;;
59062;SDS011;44851;45.648;9.004;2023-04-25T06:51:58;2.10;;;1.83;;
59062;SDS011;44851;45.648;9.004;2023-04-25T06:54:23;2.17;;;1.97;;
59062;SDS011;44851;45.648;9.004;2023-04-25T06:56:50;2.20;;;2.00;;
59062;SDS011;44851;45.648;9.004;2023-04-25T06:59:15;2.00;;;1.80;;
59062;SDS011;44851;45.648;9.004;2023-04-25T07:01:41;3.33;;;2.23;;
59062;SDS011;44851;45.648;9.004;2023-04-25T07:04:06;2.23;;;2.03;;
59062;SDS011;44851;45.648;9.004;2023-04-25T07:06:32;2.20;;;2.00;;
59062;SDS011;44851;45.648;9.004;2023-04-25T07:08:57;2.50;;;2.00;;
59062;SDS011;44851;45.648;9.004;2023-04-25T07:11:23;2.77;;;2.23;;
59062;SDS011;44851;45.648;9.004;2023-04-25T07:13:48;2.03;;;1.87;;
59062;SDS011;44851;45.648;9.004;2023-04-25T07:16:13;2.37;;;1.80;;
59062;SDS011;44851;45.648;9.004;2023-04-25T07:18:39;2.43;;;2.20;;
59062;SDS011;44851;45.648;9.004;2023-04-25T07:21:04;3.13;;;2.10;;
59062;SDS011;44851;45.648;9.004;2023-04-25T07:23:30;3.33;;;2.57;;
59062;SDS011;44851;45.648;9.004;2023-04-25T07:25:55;2.67;;;2.23;;
